sensor_id;sensor_type;location;lat;lon;timestamp;pressure;altitude;pressure_sealevel;temperature;humidity
15193;BME280;7697;51.630;7.484;2024-02-26T00:04:55;-17286.53;;;6.31;93.95
15193;BME280;7697;51.630;7.484;2024-02-26T00:09:57;-17286.88;;;6.32;93.80
15193;BME280;7697;51.630;7.484;2024-02-26T00:14:58;-17288.19;;;6.36;93.34
15193;BME280;7697;51.630;7.484;2024-02-26T00:20:02;-17289.88;;;6.41;93.24
15193;BME280;7697;51.630;7.484;2024-02-26T00:25:08;-17289.72;;;6.40;93.69
15193;BME280;7697;51.630;7.484;2024-02-26T00:30:12;-17291.22;;;6.45;93.92
15193;BME280;7697;51.630;7.484;2024-02-26T00:35:15;-17292.41;;;6.49;92.64
15193;BME280;7697;51.630;7.484;2024-02-26T00:40:20;-17294.41;;;6.55;93.58
15193;BME280;7697;51.630;7.484;2024-02-26T00:45:22;-17294.06;;;6.54;92.75
15193;BME280;7697;51.630;7.484;2024-02-26T00:50:25;-17295.59;;;6.58;92.81
15193;BME280;7697;51.630;7.484;2024-02-26T00:55:27;-17297.09;;;6.63;92.35
15193;BME280;7697;51.630;7.484;2024-02-26T01:00:29;-17297.94;;;6.65;92.38
15193;BME280;7697;51.630;7.484;2024-02-26T01:05:32;-17299.94;;;6.71;92.55
15193;BME280;7697;51.630;7.484;2024-02-26T01:10:33;-17299.78;;;6.71;92.36
15193;BME280;7697;51.630;7.484;2024-02-26T01:15:35;-17301.13;;;6.75;92.15
15193;BME280;7697;51.630;7.484;2024-02-26T01:20:38;-17301.94;;;6.77;92.37
15193;BME280;7697;51.630;7.484;2024-02-26T01:25:40;-17300.59;;;6.73;92.09
15193;BME280;7697;51.630;7.484;2024-02-26T01:30:43;-17302.97;;;6.81;91.16
15193;BME280;7697;51.630;7.484;2024-02-26T01:35:46;-17303.63;;;6.83;91.57
15193;BME280;7697;51.630;7.484;2024-02-26T01:40:48;-17304.63;;;6.86;92.13
15193;BME280;7697;51.630;7.484;2024-02-26T01:45:49;-17304.13;;;6.84;91.16
15193;BME280;7697;51.630;7.484;2024-02-26T01:50:52;-17304.47;;;6.85;91.32
15193;BME280;7697;51.630;7.484;2024-02-26T01:55:54;-17305.13;;;6.87;91.08
15193;BME280;7697;51.630;7.484;2024-02-26T02:00:56;-17305.47;;;6.88;91.39
15193;BME280;7697;51.630;7.484;2024-02-26T02:06:00;-17304.31;;;6.85;91.12
15193;BME280;7697;51.630;7.484;2024-02-26T02:11:02;-17304.97;;;6.87;91.32
15193;BME280;7697;51.630;7.484;2024-02-26T02:16:04;-17304.13;;;6.84;91.44
15193;BME280;7697;51.630;7.484;2024-02-26T02:21:07;-17304.97;;;6.87;91.07
15193;BME280;7697;51.630;7.484;2024-02-26T02:26:09;-17305.81;;;6.89;91.20
15193;BME280;7697;51.630;7.484;2024-02-26T02:31:11;-17304.13;;;6.84;90.92
15193;BME280;7697;51.630;7.484;2024-02-26T02:36:15;-17304.97;;;6.87;91.65
15193;BME280;7697;51.630;7.484;2024-02-26T02:41:17;-17304.63;;;6.86;90.64
15193;BME280;7697;51.630;7.484;2024-02-26T02:46:19;-17305.66;;;6.89;90.90
15193;BME280;7697;51.630;7.484;2024-02-26T02:51:22;-17304.47;;;6.85;91.10
15193;BME280;7697;51.630;7.484;2024-02-26T02:56:23;-17303.97;;;6.84;90.77
15193;BME280;7697;51.630;7.484;2024-02-26T03:01:25;-17306.47;;;6.91;90.80
15193;BME280;7697;51.630;7.484;2024-02-26T03:06:28;-17307.31;;;6.94;91.26
15193;BME280;7697;51.630;7.484;2024-02-26T03:11:30;-17307.31;;;6.94;90.68
15193;BME280;7697;51.630;7.484;2024-02-26T03:16:32;-17308.31;;;6.97;90.51
15193;BME280;7697;51.630;7.484;2024-02-26T03:21:35;-17308.31;;;6.97;90.64
15193;BME280;7697;51.630;7.484;2024-02-26T03:26:37;-17308.31;;;6.97;90.98
15193;BME280;7697;51.630;7.484;2024-02-26T03:31:39;-17308.31;;;6.97;90.10
15193;BME280;7697;51.630;7.484;2024-02-26T03:36:42;-17307.81;;;6.95;90.88
15193;BME280;7697;51.630;7.484;2024-02-26T03:41:43;-17308.16;;;6.96;90.31
15193;BME280;7697;51.630;7.484;2024-02-26T03:46:45;-17308.31;;;6.97;91.08
15193;BME280;7697;51.630;7.484;2024-02-26T03:51:48;-17306.97;;;6.93;90.42
15193;BME280;7697;51.630;7.484;2024-02-26T03:56:50;-17305.66;;;6.89;91.21
15193;BME280;7697;51.630;7.484;2024-02-26T04:01:52;-17304.81;;;6.86;90.99
15193;BME280;7697;51.630;7.484;2024-02-26T04:06:55;-17304.31;;;6.85;92.04
15193;BME280;7697;51.630;7.484;2024-02-26T04:11:57;-17305.31;;;6.88;92.18
15193;BME280;7697;51.630;7.484;2024-02-26T04:16:58;-17302.78;;;6.80;92.81
15193;BME280;7697;51.630;7.484;2024-02-26T04:22:02;-17302.28;;;6.78;92.98
15193;BME280;7697;51.630;7.484;2024-02-26T04:27:04;-17299.59;;;6.70;93.90
15193;BME280;7697;51.630;7.484;2024-02-26T04:32:06;-17298.25;;;6.66;93.53
15193;BME280;7697;51.630;7.484;2024-02-26T04:37:09;-17297.59;;;6.64;94.03
15193;BME280;7697;51.630;7.484;2024-02-26T04:42:11;-17297.94;;;6.65;94.53
15193;BME280;7697;51.630;7.484;2024-02-26T04:47:12;-17296.91;;;6.62;95.07
15193;BME280;7697;51.630;7.484;2024-02-26T04:52:16;-17297.75;;;6.65;95.66
15193;BME280;7697;51.630;7.484;2024-02-26T04:57:17;-17297.44;;;6.64;95.38
15193;BME280;7697;51.630;7.484;2024-02-26T05:02:19;-17295.25;;;6.57;96.69
15193;BME280;7697;51.630;7.484;2024-02-26T05:07:22;-17295.25;;;6.57;96.77
15193;BME280;7697;51.630;7.484;2024-02-26T05:12:24;-17295.06;;;6.57;97.35
15193;BME280;7697;51.630;7.484;2024-02-26T05:17:26;-17294.91;;;6.56;97.69
15193;BME280;7697;51.630;7.484;2024-02-26T05:22:29;-17293.41;;;6.52;97.79
15193;BME280;7697;51.630;7.484;2024-02-26T05:27:30;-17293.06;;;6.51;98.45
15193;BME280;7697;51.630;7.484;2024-02-26T05:32:32;-17294.91;;;6.56;98.40
15193;BME280;7697;51.630;7.484;2024-02-26T05:37:35;-17293.56;;;6.52;98.59
15193;BME280;7697;51.630;7.484;2024-02-26T05:42:37;-17293.25;;;6.51;98.95
15193;BME280;7697;51.630;7.484;2024-02-26T05:47:39;-17291.06;;;6.45;98.80
15193;BME280;7697;51.630;7.484;2024-02-26T05:52:44;-17292.56;;;6.49;99.21
15193;BME280;7697;51.630;7.484;2024-02-26T05:57:46;-17292.22;;;6.48;99.50
15193;BME280;7697;51.630;7.484;2024-02-26T06:02:50;-17291.56;;;6.46;100.00
15193;BME280;7697;51.630;7.484;2024-02-26T06:07:53;-17290.22;;;6.42;100.00
15193;BME280;7697;51.630;7.484;2024-02-26T06:12:55;-17290.06;;;6.42;100.00
15193;BME280;7697;51.630;7.484;2024-02-26T06:17:56;-17289.72;;;6.40;100.00
15193;BME280;7697;51.630;7.484;2024-02-26T06:22:59;-17290.22;;;6.42;100.00
15193;BME280;7697;51.630;7.484;2024-02-26T06:28:01;-17290.06;;;6.42;100.00
15193;BME280;7697;51.630;7.484;2024-02-26T06:33:03;-17291.38;;;6.46;100.00
15193;BME280;7697;51.630;7.484;2024-02-26T06:38:07;-17291.38;;;6.46;100.00
15193;BME280;7697;51.630;7.484;2024-02-26T06:43:09;-17291.56;;;6.46;100.00
15193;BME280;7697;51.630;7.484;2024-02-26T06:48:11;-17292.56;;;6.49;100.00
15193;BME280;7697;51.630;7.484;2024-02-26T06:53:14;-17291.88;;;6.47;100.00
15193;BME280;7697;51.630;7.484;2024-02-26T06:58:16;-17291.06;;;6.45;100.00
15193;BME280;7697;51.630;7.484;2024-02-26T07:03:18;-17291.88;;;6.47;100.00
15193;BME280;7697;51.630;7.484;2024-02-26T07:08:21;-17292.91;;;6.50;100.00
15193;BME280;7697;51.630;7.484;2024-02-26T07:13:23;-17293.56;;;6.52;99.78
15193;BME280;7697;51.630;7.484;2024-02-26T07:18:24;-17295.59;;;6.58;99.84
15193;BME280;7697;51.630;7.484;2024-02-26T07:23:27;-17296.59;;;6.61;99.75
15193;BME280;7697;51.630;7.484;2024-02-26T07:28:29;-17297.44;;;6.64;100.00
15193;BME280;7697;51.630;7.484;2024-02-26T07:33:31;-17298.59;;;6.67;99.79
15193;BME280;7697;51.630;7.484;2024-02-26T07:38:34;-17298.59;;;6.67;98.70
15193;BME280;7697;51.630;7.484;2024-02-26T07:43:36;-17300.94;;;6.74;99.01
15193;BME280;7697;51.630;7.484;2024-02-26T07:48:37;-17301.78;;;6.77;98.29
15193;BME280;7697;51.630;7.484;2024-02-26T07:53:41;-17302.63;;;6.80;98.37
15193;BME280;7697;51.630;7.484;2024-02-26T07:58:42;-17303.47;;;6.82;98.30
15193;BME280;7697;51.630;7.484;2024-02-26T08:03:44;-17304.63;;;6.86;98.18
15193;BME280;7697;51.630;7.484;2024-02-26T08:08:47;-17305.97;;;6.90;97.86
15193;BME280;7697;51.630;7.484;2024-02-26T08:13:49;-17307.16;;;6.93;98.04
15193;BME280;7697;51.630;7.484;2024-02-26T08:18:51;-17308.81;;;6.98;97.86
15193;BME280;7697;51.630;7.484;2024-02-26T08:23:54;-17309.31;;;7.00;97.74
15193;BME280;7697;51.630;7.484;2024-02-26T08:28:56;-17310.00;;;7.02;97.87
15193;BME280;7697;51.630;7.484;2024-02-26T08:33:58;-17311.00;;;7.05;97.24
15193;BME280;7697;51.630;7.484;2024-02-26T08:39:02;-17314.03;;;7.14;96.79
15193;BME280;7697;51.630;7.484;2024-02-26T08:44:04;-17314.53;;;7.15;96.97
15193;BME280;7697;51.630;7.484;2024-02-26T08:49:06;-17317.03;;;7.23;96.09
15193;BME280;7697;51.630;7.484;2024-02-26T08:54:09;-17317.56;;;7.25;96.30
15193;BME280;7697;51.630;7.484;2024-02-26T08:59:11;-17316.53;;;7.22;96.03
15193;BME280;7697;51.630;7.484;2024-02-26T09:04:12;-17319.56;;;7.31;96.73
15193;BME280;7697;51.630;7.484;2024-02-26T09:09:15;-17319.72;;;7.31;96.49
15193;BME280;7697;51.630;7.484;2024-02-26T09:14:17;-17321.22;;;7.36;97.00
15193;BME280;7697;51.630;7.484;2024-02-26T09:19:19;-17324.25;;;7.45;97.50
15193;BME280;7697;51.630;7.484;2024-02-26T09:24:22;-17324.25;;;7.45;97.86
15193;BME280;7697;51.630;7.484;2024-02-26T09:29:24;-17326.78;;;7.52;97.75
15193;BME280;7697;51.630;7.484;2024-02-26T09:34:27;-17329.13;;;7.60;98.27
15193;BME280;7697;51.630;7.484;2024-02-26T09:39:30;-17331.13;;;7.66;97.10
15193;BME280;7697;51.630;7.484;2024-02-26T09:44:34;-17335.31;;;7.78;96.97
15193;BME280;7697;51.630;7.484;2024-02-26T09:49:38;-17337.84;;;7.86;96.58
15193;BME280;7697;51.630;7.484;2024-02-26T09:54:42;-17341.69;;;7.98;96.43
15193;BME280;7697;51.630;7.484;2024-02-26T09:59:49;-17343.03;;;8.02;95.71
15193;BME280;7697;51.630;7.484;2024-02-26T10:04:52;-17345.56;;;8.09;94.41
15193;BME280;7697;51.630;7.484;2024-02-26T10:09:58;-17348.22;;;8.17;94.46
15193;BME280;7697;51.630;7.484;2024-02-26T10:14:59;-17351.09;;;8.26;94.09
15193;BME280;7697;51.630;7.484;2024-02-26T10:20:12;-17352.44;;;8.30;94.36
15193;BME280;7697;51.630;7.484;2024-02-26T10:25:16;-17356.47;;;8.42;93.66
15193;BME280;7697;51.630;7.484;2024-02-26T10:30:19;-17358.13;;;8.47;93.45
15193;BME280;7697;51.630;7.484;2024-02-26T10:35:22;-17360.31;;;8.54;93.22
15193;BME280;7697;51.630;7.484;2024-02-26T10:40:25;-17362.00;;;8.59;92.48
15193;BME280;7697;51.630;7.484;2024-02-26T10:45:26;-17363.66;;;8.64;92.50
15193;BME280;7697;51.630;7.484;2024-02-26T10:50:28;-17364.00;;;8.65;93.31
15193;BME280;7697;51.630;7.484;2024-02-26T10:55:32;-17365.34;;;8.69;92.50
15193;BME280;7697;51.630;7.484;2024-02-26T11:00:36;-17365.69;;;8.70;92.50
15193;BME280;7697;51.630;7.484;2024-02-26T11:05:40;-17366.03;;;8.71;93.31
15193;BME280;7697;51.630;7.484;2024-02-26T11:10:46;-17366.19;;;8.72;92.47
15193;BME280;7697;51.630;7.484;2024-02-26T11:15:48;-17366.53;;;8.73;92.72
15193;BME280;7697;51.630;7.484;2024-02-26T11:20:52;-17366.34;;;8.72;92.56
15193;BME280;7697;51.630;7.484;2024-02-26T11:25:59;-17367.38;;;8.75;92.54
15193;BME280;7697;51.630;7.484;2024-02-26T11:31:01;-17367.88;;;8.77;93.29
15193;BME280;7697;51.630;7.484;2024-02-26T11:36:07;-17368.19;;;8.78;93.36
15193;BME280;7697;51.630;7.484;2024-02-26T11:41:11;-17368.69;;;8.79;93.31
15193;BME280;7697;51.630;7.484;2024-02-26T11:46:25;-17369.22;;;8.81;92.99
15193;BME280;7697;51.630;7.484;2024-02-26T11:51:27;-17368.53;;;8.79;93.54
15193;BME280;7697;51.630;7.484;2024-02-26T11:56:33;-17369.03;;;8.80;93.19
15193;BME280;7697;51.630;7.484;2024-02-26T12:01:45;-17366.69;;;8.73;93.34
15193;BME280;7697;51.630;7.484;2024-02-26T12:06:52;-17368.03;;;8.77;93.81
15193;BME280;7697;51.630;7.484;2024-02-26T12:11:55;-17366.34;;;8.72;93.08
15193;BME280;7697;51.630;7.484;2024-02-26T12:16:57;-17369.03;;;8.80;92.73
15193;BME280;7697;51.630;7.484;2024-02-26T12:22:00;-17367.69;;;8.76;92.12
15193;BME280;7697;51.630;7.484;2024-02-26T12:27:03;-17368.38;;;8.78;93.39
15193;BME280;7697;51.630;7.484;2024-02-26T12:32:05;-17370.03;;;8.83;93.78
15193;BME280;7697;51.630;7.484;2024-02-26T12:37:07;-17369.72;;;8.82;94.50
15193;BME280;7697;51.630;7.484;2024-02-26T12:42:12;-17368.38;;;8.78;94.73
15193;BME280;7697;51.630;7.484;2024-02-26T12:47:14;-17368.53;;;8.79;94.62
15193;BME280;7697;51.630;7.484;2024-02-26T12:52:17;-17366.84;;;8.74;95.22
15193;BME280;7697;51.630;7.484;2024-02-26T12:57:20;-17366.69;;;8.73;95.05
15193;BME280;7697;51.630;7.484;2024-02-26T13:02:22;-17367.69;;;8.76;95.22
15193;BME280;7697;51.630;7.484;2024-02-26T13:07:24;-17368.19;;;8.78;95.98
15193;BME280;7697;51.630;7.484;2024-02-26T13:12:27;-17367.03;;;8.74;95.73
15193;BME280;7697;51.630;7.484;2024-02-26T13:17:31;-17367.03;;;8.74;95.77
15193;BME280;7697;51.630;7.484;2024-02-26T13:22:33;-17365.34;;;8.69;96.48
15193;BME280;7697;51.630;7.484;2024-02-26T13:27:36;-17366.84;;;8.74;96.39
15193;BME280;7697;51.630;7.484;2024-02-26T13:32:39;-17365.69;;;8.70;96.06
15193;BME280;7697;51.630;7.484;2024-02-26T13:37:41;-17364.69;;;8.67;96.70
15193;BME280;7697;51.630;7.484;2024-02-26T13:42:44;-17364.84;;;8.68;96.61
15193;BME280;7697;51.630;7.484;2024-02-26T13:47:48;-17365.34;;;8.69;96.38
15193;BME280;7697;51.630;7.484;2024-02-26T13:52:50;-17366.34;;;8.72;95.43
15193;BME280;7697;51.630;7.484;2024-02-26T13:57:56;-17366.69;;;8.73;95.94
15193;BME280;7697;51.630;7.484;2024-02-26T14:02:58;-17367.19;;;8.75;95.21
15193;BME280;7697;51.630;7.484;2024-02-26T14:08:00;-17368.38;;;8.78;95.73
15193;BME280;7697;51.630;7.484;2024-02-26T14:13:03;-17369.88;;;8.83;95.29
15193;BME280;7697;51.630;7.484;2024-02-26T14:18:05;-17369.38;;;8.81;95.60
15193;BME280;7697;51.630;7.484;2024-02-26T14:23:09;-17370.88;;;8.86;95.16
15193;BME280;7697;51.630;7.484;2024-02-26T14:28:12;-17370.88;;;8.86;95.40
15193;BME280;7697;51.630;7.484;2024-02-26T14:33:13;-17372.56;;;8.91;94.93
15193;BME280;7697;51.630;7.484;2024-02-26T14:38:15;-17372.72;;;8.91;94.82
15193;BME280;7697;51.630;7.484;2024-02-26T14:43:18;-17373.41;;;8.93;95.23
15193;BME280;7697;51.630;7.484;2024-02-26T14:48:20;-17374.06;;;8.95;94.93
15193;BME280;7697;51.630;7.484;2024-02-26T14:53:22;-17373.22;;;8.93;94.34
15193;BME280;7697;51.630;7.484;2024-02-26T14:58:25;-17374.91;;;8.98;94.04
15193;BME280;7697;51.630;7.484;2024-02-26T15:03:27;-17375.91;;;9.01;94.65
15193;BME280;7697;51.630;7.484;2024-02-26T15:08:29;-17376.41;;;9.02;94.16
15193;BME280;7697;51.630;7.484;2024-02-26T15:13:33;-17377.44;;;9.06;94.22
15193;BME280;7697;51.630;7.484;2024-02-26T15:18:36;-17378.09;;;9.08;93.37
15193;BME280;7697;51.630;7.484;2024-02-26T15:23:39;-17377.09;;;9.04;92.83
15193;BME280;7697;51.630;7.484;2024-02-26T15:28:42;-17378.09;;;9.08;93.48
15193;BME280;7697;51.630;7.484;2024-02-26T15:33:44;-17378.25;;;9.08;93.24
15193;BME280;7697;51.630;7.484;2024-02-26T15:38:45;-17379.44;;;9.12;91.90
15193;BME280;7697;51.630;7.484;2024-02-26T15:43:49;-17377.75;;;9.07;92.70
15193;BME280;7697;51.630;7.484;2024-02-26T15:48:50;-17377.44;;;9.06;92.40
15193;BME280;7697;51.630;7.484;2024-02-26T15:53:52;-17376.75;;;9.03;92.27
15193;BME280;7697;51.630;7.484;2024-02-26T15:58:56;-17375.91;;;9.01;91.96
15193;BME280;7697;51.630;7.484;2024-02-26T16:03:57;-17373.75;;;8.94;92.11
15193;BME280;7697;51.630;7.484;2024-02-26T16:08:59;-17373.75;;;8.94;92.17
15193;BME280;7697;51.630;7.484;2024-02-26T16:14:21;-17372.06;;;8.89;92.64
15193;BME280;7697;51.630;7.484;2024-02-26T16:19:26;-17370.22;;;8.84;92.69
15193;BME280;7697;51.630;7.484;2024-02-26T16:24:27;-17368.69;;;8.79;92.45
15193;BME280;7697;51.630;7.484;2024-02-26T16:29:30;-17366.84;;;8.74;92.83
15193;BME280;7697;51.630;7.484;2024-02-26T16:34:35;-17368.69;;;8.79;92.56
15193;BME280;7697;51.630;7.484;2024-02-26T16:39:37;-17366.69;;;8.73;92.67
15193;BME280;7697;51.630;7.484;2024-02-26T16:44:40;-17366.19;;;8.72;93.09
15193;BME280;7697;51.630;7.484;2024-02-26T16:49:42;-17365.84;;;8.71;93.68
15193;BME280;7697;51.630;7.484;2024-02-26T16:54:44;-17365.84;;;8.71;92.71
15193;BME280;7697;51.630;7.484;2024-02-26T16:59:49;-17365.00;;;8.68;92.60
15193;BME280;7697;51.630;7.484;2024-02-26T17:04:50;-17363.34;;;8.63;92.78
15193;BME280;7697;51.630;7.484;2024-02-26T17:09:52;-17363.00;;;8.62;92.65
15193;BME280;7697;51.630;7.484;2024-02-26T17:14:56;-17362.66;;;8.61;92.72
15193;BME280;7697;51.630;7.484;2024-02-26T17:19:58;-17361.50;;;8.57;93.57
15193;BME280;7697;51.630;7.484;2024-02-26T17:25:00;-17361.84;;;8.58;93.26
15193;BME280;7697;51.630;7.484;2024-02-26T17:30:04;-17363.66;;;8.64;93.33
15193;BME280;7697;51.630;7.484;2024-02-26T17:35:07;-17362.84;;;8.61;92.96
15193;BME280;7697;51.630;7.484;2024-02-26T17:40:14;-17363.34;;;8.63;93.19
15193;BME280;7697;51.630;7.484;2024-02-26T17:45:17;-17361.84;;;8.58;93.54
15193;BME280;7697;51.630;7.484;2024-02-26T17:50:22;-17361.66;;;8.58;93.94
15193;BME280;7697;51.630;7.484;2024-02-26T17:55:24;-17359.81;;;8.52;93.98
15193;BME280;7697;51.630;7.484;2024-02-26T18:00:28;-17360.31;;;8.54;93.99
15193;BME280;7697;51.630;7.484;2024-02-26T18:05:30;-17359.97;;;8.53;93.75
15193;BME280;7697;51.630;7.484;2024-02-26T18:10:31;-17359.31;;;8.51;94.56
15193;BME280;7697;51.630;7.484;2024-02-26T18:15:34;-17358.31;;;8.48;95.08
15193;BME280;7697;51.630;7.484;2024-02-26T18:20:37;-17357.97;;;8.47;95.26
15193;BME280;7697;51.630;7.484;2024-02-26T18:25:39;-17357.47;;;8.45;95.15
15193;BME280;7697;51.630;7.484;2024-02-26T18:30:43;-17356.97;;;8.44;95.86
15193;BME280;7697;51.630;7.484;2024-02-26T18:35:46;-17355.63;;;8.40;95.95
15193;BME280;7697;51.630;7.484;2024-02-26T18:40:48;-17354.63;;;8.37;96.75
15193;BME280;7697;51.630;7.484;2024-02-26T18:45:51;-17354.63;;;8.37;96.93
15193;BME280;7697;51.630;7.484;2024-02-26T18:50:57;-17354.63;;;8.37;96.45
15193;BME280;7697;51.630;7.484;2024-02-26T18:55:59;-17353.59;;;8.34;97.63
15193;BME280;7697;51.630;7.484;2024-02-26T19:01:05;-17353.59;;;8.34;97.52
15193;BME280;7697;51.630;7.484;2024-02-26T19:06:10;-17351.59;;;8.27;98.01
15193;BME280;7697;51.630;7.484;2024-02-26T19:11:11;-17352.09;;;8.29;97.61
15193;BME280;7697;51.630;7.484;2024-02-26T19:16:14;-17350.09;;;8.23;98.21
15193;BME280;7697;51.630;7.484;2024-02-26T19:21:16;-17349.75;;;8.22;98.71
15193;BME280;7697;51.630;7.484;2024-02-26T19:26:19;-17350.75;;;8.25;98.87
15193;BME280;7697;51.630;7.484;2024-02-26T19:31:22;-17350.41;;;8.24;98.54
15193;BME280;7697;51.630;7.484;2024-02-26T19:36:28;-17350.41;;;8.24;98.30
15193;BME280;7697;51.630;7.484;2024-02-26T19:41:29;-17350.59;;;8.24;98.83
15193;BME280;7697;51.630;7.484;2024-02-26T19:46:33;-17349.91;;;8.22;98.63
15193;BME280;7697;51.630;7.484;2024-02-26T19:51:34;-17350.59;;;8.24;98.05
15193;BME280;7697;51.630;7.484;2024-02-26T19:56:37;-17348.91;;;8.19;99.33
15193;BME280;7697;51.630;7.484;2024-02-26T20:01:40;-17349.06;;;8.20;99.02
15193;BME280;7697;51.630;7.484;2024-02-26T20:06:42;-17348.22;;;8.17;98.97
15193;BME280;7697;51.630;7.484;2024-02-26T20:11:44;-17349.59;;;8.21;99.02
15193;BME280;7697;51.630;7.484;2024-02-26T20:16:47;-17348.06;;;8.17;99.35
15193;BME280;7697;51.630;7.484;2024-02-26T20:21:49;-17349.75;;;8.22;98.41
15193;BME280;7697;51.630;7.484;2024-02-26T20:26:52;-17348.75;;;8.19;98.92
15193;BME280;7697;51.630;7.484;2024-02-26T20:31:56;-17348.91;;;8.19;98.87
15193;BME280;7697;51.630;7.484;2024-02-26T20:36:58;-17347.56;;;8.15;98.85
15193;BME280;7697;51.630;7.484;2024-02-26T20:42:00;-17348.22;;;8.17;99.81
15193;BME280;7697;51.630;7.484;2024-02-26T20:47:04;-17347.56;;;8.15;99.52
15193;BME280;7697;51.630;7.484;2024-02-26T20:52:05;-17347.56;;;8.15;99.49
15193;BME280;7697;51.630;7.484;2024-02-26T20:57:07;-17345.56;;;8.09;99.76
15193;BME280;7697;51.630;7.484;2024-02-26T21:02:11;-17344.53;;;8.06;100.00
15193;BME280;7697;51.630;7.484;2024-02-26T21:07:13;-17345.56;;;8.09;99.94
15193;BME280;7697;51.630;7.484;2024-02-26T21:12:16;-17343.88;;;8.04;100.00
15193;BME280;7697;51.630;7.484;2024-02-26T21:17:20;-17342.53;;;8.00;100.00
15193;BME280;7697;51.630;7.484;2024-02-26T21:22:22;-17341.34;;;7.97;100.00
15193;BME280;7697;51.630;7.484;2024-02-26T21:27:23;-17340.19;;;7.93;100.00
15193;BME280;7697;51.630;7.484;2024-02-26T21:32:27;-17339.69;;;7.91;100.00
15193;BME280;7697;51.630;7.484;2024-02-26T21:37:28;-17339.34;;;7.90;100.00
15193;BME280;7697;51.630;7.484;2024-02-26T21:42:30;-17336.66;;;7.82;100.00
15193;BME280;7697;51.630;7.484;2024-02-26T21:47:34;-17337.16;;;7.84;100.00
15193;BME280;7697;51.630;7.484;2024-02-26T21:52:35;-17334.66;;;7.76;100.00
15193;BME280;7697;51.630;7.484;2024-02-26T21:57:37;-17334.50;;;7.76;100.00
15193;BME280;7697;51.630;7.484;2024-02-26T22:02:41;-17334.16;;;7.75;100.00
15193;BME280;7697;51.630;7.484;2024-02-26T22:07:42;-17333.13;;;7.72;100.00
15193;BME280;7697;51.630;7.484;2024-02-26T22:12:44;-17331.81;;;7.68;100.00
15193;BME280;7697;51.630;7.484;2024-02-26T22:17:48;-17331.13;;;7.66;100.00
15193;BME280;7697;51.630;7.484;2024-02-26T22:22:50;-17331.81;;;7.68;100.00
15193;BME280;7697;51.630;7.484;2024-02-26T22:27:51;-17330.78;;;7.65;100.00
15193;BME280;7697;51.630;7.484;2024-02-26T22:32:55;-17328.44;;;7.58;100.00
15193;BME280;7697;51.630;7.484;2024-02-26T22:37:57;-17327.78;;;7.56;100.00
15193;BME280;7697;51.630;7.484;2024-02-26T22:42:59;-17326.94;;;7.53;100.00
15193;BME280;7697;51.630;7.484;2024-02-26T22:48:02;-17327.09;;;7.53;100.00
15193;BME280;7697;51.630;7.484;2024-02-26T22:53:05;-17326.59;;;7.52;100.00
15193;BME280;7697;51.630;7.484;2024-02-26T22:58:06;-17326.44;;;7.51;100.00
15193;BME280;7697;51.630;7.484;2024-02-26T23:03:10;-17324.41;;;7.45;100.00
15193;BME280;7697;51.630;7.484;2024-02-26T23:08:11;-17324.41;;;7.45;100.00
15193;BME280;7697;51.630;7.484;2024-02-26T23:13:13;-17323.59;;;7.43;100.00
15193;BME280;7697;51.630;7.484;2024-02-26T23:18:17;-17323.09;;;7.41;100.00
15193;BME280;7697;51.630;7.484;2024-02-26T23:23:19;-17322.75;;;7.40;100.00
15193;BME280;7697;51.630;7.484;2024-02-26T23:28:21;-17323.25;;;7.42;100.00
15193;BME280;7697;51.630;7.484;2024-02-26T23:33:24;-17322.91;;;7.41;100.00
15193;BME280;7697;51.630;7.484;2024-02-26T23:38:26;-17320.06;;;7.32;100.00
15193;BME280;7697;51.630;7.484;2024-02-26T23:43:27;-17320.56;;;7.34;100.00
15193;BME280;7697;51.630;7.484;2024-02-26T23:48:31;-17321.75;;;7.37;100.00
15193;BME280;7697;51.630;7.484;2024-02-26T23:53:32;-17321.06;;;7.35;100.00
15193;BME280;7697;51.630;7.484;2024-02-26T23:58:34;-17321.06;;;7.35;100.00
